Liberal Mid-America Regional Airport Liberal US
ICAO: KLBL
IATA: LBL
Category: Medium
Scheduled Services: Yes

Elevation: 2885 ft
TransAlt. 18000 ft.

Airport Communications:
AWOS 3:118.375
KANSAS CITY CNTR:134
WICHITA RDO:122.4
CTAF/UNICOM:122.8

KLBL Zoom In..

Runways:

(A) RW 04 length 5721 ft width 150 ft
---- / hdg 35

(B) RW 17 length 7105 ft width 100 ft
---- / hdg 170

(C) RW 22 length 5721 ft width 150 ft
---- / hdg 215

(D) RW 35 length 7105 ft width 100 ft
ILS 111.30 / hdg 350

Location; KLBL
Day. 20 / Time. 09.56 Zulu
* Altimeter: 30.19
* Temperature: 07° c. 44.6°f.
* Wind from: 120° Speed 13 kn.
Dewpoint: -02° c.
Visibility: 10 Statute Miles.
Clouds: Scattered 8500 ft.

KLBL 200956Z AUTO 12013KT 10SM SCT085 07/M02 A3019 RMK AO2 SLP216 T00671017


Wind From 120°
Speed 13 kn.

  YouTube Music Video
 
jpsmedia.com for Web Design  worldairports.se 2018   terms of use